Time;durP1;ratioP1;P1;durP2;ratioP2;P2;SDS_P1;SDS_P2;PMS_P1;PMS_P2;Temp;Humidity;BMP_temperature;BMP_pressure;BME280_temperature;BME280_humidity;BME280_pressure;Samples;Min_cycle;Max_cycle;Signal;HPM_P1;HPM_P2
2022/12/08 00:00:20;;;;;;;;;;;19.30;42.50;;;;;;5058434;28;20383;-54
2022/12/08 00:02:45;;;;;;;;;;;19.30;42.50;;;;;;5061171;27;19916;-55
2022/12/08 00:10:41;;;;;;;;;;;19.30;42.30;;;;;;5050106;27;19969;-55
2022/12/08 00:13:07;;;;;;;;;;;19.30;42.30;;;;;;5053409;28;20033;-54
2022/12/08 00:15:32;;;;;;;;;;;19.20;42.30;;;;;;5049088;28;20357;-55
2022/12/08 00:17:57;;;;;;;;;;;19.20;42.30;;;;;;5050744;28;19951;-55
2022/12/08 00:20:23;;;;;;;;;;;19.20;42.20;;;;;;5057328;28;19969;-54
2022/12/08 00:22:48;;;;;;;;;;;19.20;42.10;;;;;;5047680;28;19924;-55
2022/12/08 00:25:14;;;;;;;;;;;19.20;42.10;;;;;;5048483;27;19946;-56
2022/12/08 00:27:39;;;;;;;;;;;19.20;42.20;;;;;;5046174;28;19927;-55
2022/12/08 00:30:05;;;;;;;;;;;19.20;42.10;;;;;;5046904;28;19946;-55
2022/12/08 00:32:31;;;;;;;;;;;19.20;42.10;;;;;;5045823;28;19913;-55
2022/12/08 00:34:56;;;;;;;;;;;19.20;42.00;;;;;;5049708;27;19920;-55
2022/12/08 00:37:21;;;;;;;;;;;19.20;42.80;;;;;;5049701;28;19925;-55
2022/12/08 00:39:47;;;;;;;;;;;19.20;42.80;;;;;;5050934;28;20424;-55
2022/12/08 00:42:12;;;;;;;;;;;19.20;42.80;;;;;;5051529;27;19920;-55
2022/12/08 00:44:41;;;;;;;;;;;19.10;42.80;;;;;;5052673;27;20461;-55
2022/12/08 00:47:06;;;;;;;;;;;19.10;42.90;;;;;;5053577;28;19912;-55
2022/12/08 00:49:32;;;;;;;;;;;19.10;43.10;;;;;;5052028;27;19922;-55
2022/12/08 00:51:57;;;;;;;;;;;19.00;43.20;;;;;;5048505;27;19916;-56
2022/12/08 00:54:23;;;;;;;;;;;19.00;43.00;;;;;;5049045;28;20020;-55
2022/12/08 00:56:48;;;;;;;;;;;19.00;43.00;;;;;;5050368;28;19916;-55
2022/12/08 00:59:13;;;;;;;;;;;19.00;42.90;;;;;;5049479;28;19913;-55
2022/12/08 01:01:39;;;;;;;;;;;19.00;42.70;;;;;;5055568;28;20371;-55
2022/12/08 01:04:05;;;;;;;;;;;19.10;43.10;;;;;;5052703;28;21314;-54
2022/12/08 01:06:30;;;;;;;;;;;19.00;43.00;;;;;;5047669;28;20309;-55
2022/12/08 01:08:56;;;;;;;;;;;19.00;43.20;;;;;;5052264;28;19936;-55
2022/12/08 01:11:21;;;;;;;;;;;19.00;42.90;;;;;;5062424;28;19924;-55
2022/12/08 01:13:47;;;;;;;;;;;19.10;42.70;;;;;;5058382;27;19920;-55
2022/12/08 01:16:19;;;;;;;;;;;19.10;42.60;;;;;;5050906;27;19936;-54
2022/12/08 01:18:44;;;;;;;;;;;19.10;42.50;;;;;;5048930;28;19970;-55
2022/12/08 01:21:10;;;;;;;;;;;19.10;42.50;;;;;;5048190;28;19924;-54
2022/12/08 01:23:35;;;;;;;;;;;19.10;42.50;;;;;;5051160;28;19920;-55
2022/12/08 01:26:04;;;;;;;;;;;19.10;42.50;;;;;;5049116;27;21134;-56
2022/12/08 01:28:29;;;;;;;;;;;19.20;42.50;;;;;;5050819;28;20395;-55
2022/12/08 01:30:55;;;;;;;;;;;19.10;42.40;;;;;;5049087;28;19954;-54
2022/12/08 01:33:21;;;;;;;;;;;19.10;42.50;;;;;;5050958;28;19921;-54
2022/12/08 01:35:46;;;;;;;;;;;19.10;42.40;;;;;;5050025;28;19920;-55
2022/12/08 01:38:11;;;;;;;;;;;19.10;42.60;;;;;;5050317;27;19988;-55
2022/12/08 01:40:37;;;;;;;;;;;19.10;42.40;;;;;;5049249;28;19917;-56
2022/12/08 01:43:02;;;;;;;;;;;19.10;42.50;;;;;;5049408;28;19946;-55
2022/12/08 01:45:28;;;;;;;;;;;19.10;42.60;;;;;;5048720;28;19920;-55
2022/12/08 01:47:55;;;;;;;;;;;19.10;42.50;;;;;;5051897;28;19913;-55
2022/12/08 01:50:21;;;;;;;;;;;19.10;42.50;;;;;;5037163;27;20007;-54
2022/12/08 01:52:50;;;;;;;;;;;19.10;42.70;;;;;;5048698;28;22290;-55
2022/12/08 01:55:25;;;;;;;;;;;19.10;42.70;;;;;;5051968;27;19968;-55
2022/12/08 01:57:52;;;;;;;;;;;19.00;42.70;;;;;;5042949;27;19921;-55
2022/12/08 02:00:18;;;;;;;;;;;19.00;42.70;;;;;;5037390;27;19912;-56
2022/12/08 02:02:56;;;;;;;;;;;19.00;42.80;;;;;;5052624;28;19964;-55
2022/12/08 02:05:22;;;;;;;;;;;19.00;42.70;;;;;;5049493;28;19927;-54
2022/12/08 02:07:47;;;;;;;;;;;19.00;42.60;;;;;;5036769;27;19917;-55
2022/12/08 02:10:13;;;;;;;;;;;19.00;42.50;;;;;;5048373;27;20261;-55
2022/12/08 02:12:39;;;;;;;;;;;18.90;42.60;;;;;;5033158;28;20878;-55
2022/12/08 02:15:04;;;;;;;;;;;18.90;42.90;;;;;;5050606;27;19913;-53
2022/12/08 02:17:33;;;;;;;;;;;18.90;43.30;;;;;;5048150;28;20372;-55
2022/12/08 02:20:12;;;;;;;;;;;18.90;43.40;;;;;;5049284;27;19920;-54
2022/12/08 02:22:47;;;;;;;;;;;18.80;43.00;;;;;;5053426;28;19949;-55
2022/12/08 02:25:30;;;;;;;;;;;18.80;43.40;;;;;;5049203;28;20360;-54
2022/12/08 02:27:58;;;;;;;;;;;18.90;43.20;;;;;;5049850;28;20408;-55
2022/12/08 02:30:27;;;;;;;;;;;18.90;42.70;;;;;;5049570;28;19921;-55
2022/12/08 02:33:04;;;;;;;;;;;18.90;42.90;;;;;;5048819;28;19969;-55
2022/12/08 02:35:33;;;;;;;;;;;19.00;42.90;;;;;;5047833;27;19999;-55
2022/12/08 02:37:58;;;;;;;;;;;19.00;42.80;;;;;;5049533;28;19992;-55
2022/12/08 02:40:26;;;;;;;;;;;19.10;42.80;;;;;;5050537;27;19916;-54
2022/12/08 02:42:55;;;;;;;;;;;19.20;42.80;;;;;;5046443;28;20404;-56
2022/12/08 02:45:20;;;;;;;;;;;19.20;42.70;;;;;;5047510;27;19935;-55
2022/12/08 02:47:46;;;;;;;;;;;19.20;42.60;;;;;;5049532;28;19976;-56
2022/12/08 02:50:11;;;;;;;;;;;19.30;42.70;;;;;;5047668;28;19917;-55
2022/12/08 02:52:37;;;;;;;;;;;19.20;42.60;;;;;;5049617;28;19952;-56
2022/12/08 02:55:23;;;;;;;;;;;19.20;42.60;;;;;;5048839;28;19918;-55
2022/12/08 02:57:51;;;;;;;;;;;19.30;42.70;;;;;;5050628;28;19924;-56
2022/12/08 03:00:20;;;;;;;;;;;19.30;42.70;;;;;;5048853;28;19919;-55
2022/12/08 03:02:48;;;;;;;;;;;19.30;42.70;;;;;;5048654;28;20014;-56
2022/12/08 03:05:27;;;;;;;;;;;19.30;42.70;;;;;;5048382;28;19920;-54
2022/12/08 03:07:59;;;;;;;;;;;19.20;42.70;;;;;;5048288;28;19973;-56
2022/12/08 03:10:26;;;;;;;;;;;19.10;42.90;;;;;;5047220;28;19927;-56
2022/12/08 03:12:57;;;;;;;;;;;19.10;42.90;;;;;;5035550;28;19944;-55
2022/12/08 03:15:22;;;;;;;;;;;19.10;42.50;;;;;;5048241;28;20023;-55
2022/12/08 03:17:49;;;;;;;;;;;19.10;42.60;;;;;;5049132;28;19920;-55
2022/12/08 03:20:16;;;;;;;;;;;19.20;42.40;;;;;;5045472;28;20008;-54
2022/12/08 03:22:41;;;;;;;;;;;19.20;42.30;;;;;;5035161;27;20265;-56
2022/12/08 03:25:07;;;;;;;;;;;19.20;42.20;;;;;;5032865;28;19927;-55
2022/12/08 03:27:32;;;;;;;;;;;19.30;42.20;;;;;;5035534;28;19924;-54
2022/12/08 03:29:58;;;;;;;;;;;19.30;42.20;;;;;;5046944;28;21502;-55
2022/12/08 03:32:43;;;;;;;;;;;19.30;42.20;;;;;;5047458;27;19916;-55
2022/12/08 03:35:10;;;;;;;;;;;19.30;42.10;;;;;;5030791;28;20001;-55
2022/12/08 03:37:35;;;;;;;;;;;19.30;42.10;;;;;;5013468;28;19925;-56
2022/12/08 03:40:02;;;;;;;;;;;19.30;42.10;;;;;;5048571;28;20545;-55
2022/12/08 03:42:27;;;;;;;;;;;19.30;42.10;;;;;;5047409;28;19973;-56
2022/12/08 03:44:53;;;;;;;;;;;19.30;41.90;;;;;;5044343;28;19913;-55
2022/12/08 03:47:18;;;;;;;;;;;19.30;41.90;;;;;;5047434;28;20663;-55
2022/12/08 03:49:43;;;;;;;;;;;19.30;41.90;;;;;;5044964;28;19920;-57
2022/12/08 03:52:09;;;;;;;;;;;19.30;41.80;;;;;;5046766;28;20364;-55
2022/12/08 03:54:34;;;;;;;;;;;19.30;41.80;;;;;;5044856;28;20379;-54
2022/12/08 03:57:00;;;;;;;;;;;19.30;41.80;;;;;;5046595;28;20380;-55
2022/12/08 03:59:25;;;;;;;;;;;19.30;41.80;;;;;;5044504;28;20350;-54
2022/12/08 04:01:51;;;;;;;;;;;19.30;41.70;;;;;;5047687;27;19982;-55
2022/12/08 04:04:16;;;;;;;;;;;19.30;41.60;;;;;;5049796;28;19963;-55
2022/12/08 04:06:42;;;;;;;;;;;19.30;41.60;;;;;;5044853;28;19951;-55
2022/12/08 04:09:07;;;;;;;;;;;19.30;41.60;;;;;;5047920;28;19913;-54
2022/12/08 04:11:33;;;;;;;;;;;19.30;41.60;;;;;;5048204;27;20041;-54
2022/12/08 04:13:58;;;;;;;;;;;19.30;41.60;;;;;;5047796;27;20023;-55
2022/12/08 04:16:24;;;;;;;;;;;19.30;41.60;;;;;;5051584;28;20012;-55
2022/12/08 04:18:50;;;;;;;;;;;19.30;41.60;;;;;;5052809;28;20020;-55
2022/12/08 04:21:15;;;;;;;;;;;19.30;41.60;;;;;;5053817;27;19935;-55
2022/12/08 04:23:41;;;;;;;;;;;19.30;41.70;;;;;;5048732;28;19919;-56
2022/12/08 04:26:06;;;;;;;;;;;19.20;41.60;;;;;;5034967;28;19945;-55
2022/12/08 04:28:32;;;;;;;;;;;19.20;41.50;;;;;;5049637;27;19928;-55
2022/12/08 04:30:57;;;;;;;;;;;19.30;41.60;;;;;;5049166;28;19973;-56
2022/12/08 04:33:23;;;;;;;;;;;19.30;41.50;;;;;;5049484;28;19921;-54
2022/12/08 04:35:48;;;;;;;;;;;19.30;41.50;;;;;;5049140;28;19963;-55
2022/12/08 04:38:14;;;;;;;;;;;19.30;41.30;;;;;;5046941;27;19921;-55
2022/12/08 04:40:39;;;;;;;;;;;19.30;41.30;;;;;;5048987;28;19920;-55
2022/12/08 04:43:05;;;;;;;;;;;19.30;41.20;;;;;;5052414;28;19921;-55
2022/12/08 04:45:30;;;;;;;;;;;19.30;41.20;;;;;;5058045;28;20451;-54
2022/12/08 04:47:56;;;;;;;;;;;19.40;41.30;;;;;;5049770;27;19932;-55
2022/12/08 04:50:22;;;;;;;;;;;19.30;41.30;;;;;;5048106;28;19931;-55
2022/12/08 04:52:47;;;;;;;;;;;19.30;41.30;;;;;;5047555;27;20372;-55
2022/12/08 04:55:13;;;;;;;;;;;19.30;41.20;;;;;;5052538;28;20371;-55
2022/12/08 04:57:38;;;;;;;;;;;19.40;41.30;;;;;;5054916;28;19916;-54
2022/12/08 05:00:04;;;;;;;;;;;19.40;41.30;;;;;;5049071;27;20340;-55
2022/12/08 05:02:29;;;;;;;;;;;19.30;41.20;;;;;;5049981;28;19924;-55
2022/12/08 05:04:55;;;;;;;;;;;19.30;41.20;;;;;;5049262;28;20049;-54
2022/12/08 05:07:20;;;;;;;;;;;19.30;41.20;;;;;;5045011;28;20005;-55
2022/12/08 05:09:46;;;;;;;;;;;19.30;41.20;;;;;;5048042;27;21220;-56
2022/12/08 05:12:11;;;;;;;;;;;19.30;41.20;;;;;;5049241;28;20011;-56
2022/12/08 05:14:37;;;;;;;;;;;19.30;41.20;;;;;;5048268;28;19928;-55
2022/12/08 05:17:02;;;;;;;;;;;19.30;41.20;;;;;;5052278;27;19959;-54
2022/12/08 05:19:28;;;;;;;;;;;19.30;41.30;;;;;;5053704;28;20172;-56
2022/12/08 05:21:53;;;;;;;;;;;19.30;41.30;;;;;;5059358;28;19970;-54
2022/12/08 05:24:19;;;;;;;;;;;19.30;41.20;;;;;;5058627;27;19921;-55
2022/12/08 05:26:44;;;;;;;;;;;19.30;41.30;;;;;;5057845;27;19923;-55
2022/12/08 05:29:10;;;;;;;;;;;19.20;41.20;;;;;;5059696;28;19923;-55
2022/12/08 05:31:35;;;;;;;;;;;19.30;41.30;;;;;;5056583;28;19921;-55
2022/12/08 05:34:01;;;;;;;;;;;19.30;41.30;;;;;;5051773;28;19912;-54
2022/12/08 05:36:26;;;;;;;;;;;19.30;41.20;;;;;;5047622;28;19999;-56
2022/12/08 05:38:52;;;;;;;;;;;19.20;41.20;;;;;;5052442;28;19920;-55
2022/12/08 05:41:18;;;;;;;;;;;19.20;41.20;;;;;;5054024;28;19927;-55
2022/12/08 05:43:44;;;;;;;;;;;19.20;41.20;;;;;;5054578;28;19928;-54
2022/12/08 05:46:09;;;;;;;;;;;19.20;41.20;;;;;;5047727;28;19916;-55
2022/12/08 05:48:35;;;;;;;;;;;19.20;41.20;;;;;;5053723;27;19967;-54
2022/12/08 05:51:00;;;;;;;;;;;19.20;41.20;;;;;;5047455;28;20329;-55
2022/12/08 05:53:26;;;;;;;;;;;19.20;41.30;;;;;;5049003;28;19923;-55
2022/12/08 05:55:51;;;;;;;;;;;19.20;41.30;;;;;;5052664;28;19919;-55
2022/12/08 05:58:18;;;;;;;;;;;19.20;41.40;;;;;;5048283;28;19923;-55
2022/12/08 06:00:43;;;;;;;;;;;19.10;41.30;;;;;;5053601;28;19928;-55
2022/12/08 06:03:09;;;;;;;;;;;19.20;42.00;;;;;;5052830;28;20019;-56
2022/12/08 06:05:35;;;;;;;;;;;19.20;41.30;;;;;;5048642;28;19955;-55
2022/12/08 06:08:00;;;;;;;;;;;19.20;41.20;;;;;;5046989;28;19960;-56
2022/12/08 06:10:26;;;;;;;;;;;19.20;41.10;;;;;;5058633;28;19919;-55
2022/12/08 06:12:51;;;;;;;;;;;19.20;41.20;;;;;;5052830;28;20043;-55
2022/12/08 06:15:17;;;;;;;;;;;19.10;41.20;;;;;;5048415;28;20372;-54
2022/12/08 06:17:42;;;;;;;;;;;19.20;41.30;;;;;;5046815;28;20341;-55
2022/12/08 06:20:08;;;;;;;;;;;19.20;41.20;;;;;;5056988;28;20003;-55
2022/12/08 06:22:33;;;;;;;;;;;19.20;41.20;;;;;;5050812;28;19917;-55
2022/12/08 06:24:59;;;;;;;;;;;19.10;41.10;;;;;;5054164;28;19916;-55
2022/12/08 06:27:24;;;;;;;;;;;19.20;41.20;;;;;;5050800;27;19948;-54
2022/12/08 06:29:50;;;;;;;;;;;19.20;41.10;;;;;;5045453;27;19912;-55
2022/12/08 06:32:15;;;;;;;;;;;19.20;41.00;;;;;;5048984;27;19927;-55
2022/12/08 06:34:41;;;;;;;;;;;19.20;41.00;;;;;;5049756;28;20351;-54
2022/12/08 06:37:06;;;;;;;;;;;19.20;41.00;;;;;;5048619;27;20414;-55
2022/12/08 06:39:31;;;;;;;;;;;19.20;40.90;;;;;;5046305;27;20789;-55
2022/12/08 06:44:41;;;;;;;;;;;19.20;40.90;;;;;;5047709;28;19928;-56
2022/12/08 06:47:06;;;;;;;;;;;19.20;40.90;;;;;;5045980;28;19912;-55
2022/12/08 06:49:32;;;;;;;;;;;19.20;40.90;;;;;;5044665;28;19920;-55
2022/12/08 06:51:57;;;;;;;;;;;19.20;41.00;;;;;;5047256;28;19912;-55
2022/12/08 06:54:23;;;;;;;;;;;19.20;41.00;;;;;;5046265;28;20383;-54
2022/12/08 06:56:48;;;;;;;;;;;19.20;40.90;;;;;;5048398;28;20439;-53
2022/12/08 06:59:14;;;;;;;;;;;19.20;41.00;;;;;;5043920;28;20363;-55
2022/12/08 07:01:39;;;;;;;;;;;19.20;41.00;;;;;;5047311;28;19960;-57
2022/12/08 07:04:04;;;;;;;;;;;19.20;40.90;;;;;;5045772;28;19917;-55
2022/12/08 07:06:30;;;;;;;;;;;19.20;41.00;;;;;;5047984;28;19913;-55
2022/12/08 07:08:56;;;;;;;;;;;19.10;41.00;;;;;;5054113;28;21113;-55
2022/12/08 07:11:21;;;;;;;;;;;19.10;40.90;;;;;;5056594;28;19944;-54
2022/12/08 07:13:46;;;;;;;;;;;19.10;41.00;;;;;;5050360;28;19932;-56
2022/12/08 07:16:12;;;;;;;;;;;19.10;41.10;;;;;;5046360;28;19921;-56
2022/12/08 07:18:37;;;;;;;;;;;19.10;41.10;;;;;;5044603;28;19925;-55
2022/12/08 07:21:04;;;;;;;;;;;19.10;41.20;;;;;;5044835;28;19928;-55
2022/12/08 07:23:29;;;;;;;;;;;19.10;41.30;;;;;;5047098;28;19925;-55
2022/12/08 07:25:55;;;;;;;;;;;19.10;41.40;;;;;;5047416;28;20260;-55
2022/12/08 07:28:20;;;;;;;;;;;19.10;41.50;;;;;;5032872;27;20329;-54
2022/12/08 07:30:46;;;;;;;;;;;19.10;41.60;;;;;;5047919;28;20384;-55
2022/12/08 07:33:11;;;;;;;;;;;19.00;41.60;;;;;;5045261;27;20683;-55
2022/12/08 07:35:37;;;;;;;;;;;19.00;41.70;;;;;;5046954;28;20371;-56
2022/12/08 07:38:02;;;;;;;;;;;19.00;41.70;;;;;;5047390;28;20339;-55
2022/12/08 07:40:27;;;;;;;;;;;19.00;41.60;;;;;;5045443;28;19913;-54
2022/12/08 07:42:53;;;;;;;;;;;19.10;41.70;;;;;;5054489;27;20091;-55
2022/12/08 07:45:18;;;;;;;;;;;19.10;41.90;;;;;;5065030;27;20012;-55
2022/12/08 07:47:44;;;;;;;;;;;19.00;41.80;;;;;;5051969;28;19921;-54
2022/12/08 07:50:09;;;;;;;;;;;19.00;41.90;;;;;;5055854;28;19916;-55
2022/12/08 07:52:35;;;;;;;;;;;19.10;42.00;;;;;;5053998;28;19917;-55
2022/12/08 07:55:00;;;;;;;;;;;19.00;41.90;;;;;;5066758;27;20269;-55
2022/12/08 07:57:26;;;;;;;;;;;19.00;42.10;;;;;;5057983;28;20057;-55
2022/12/08 07:59:51;;;;;;;;;;;19.00;42.20;;;;;;5054800;28;20360;-55
2022/12/08 08:02:17;;;;;;;;;;;18.90;42.20;;;;;;5056944;27;20400;-55
2022/12/08 08:04:42;;;;;;;;;;;18.90;42.20;;;;;;5054756;28;20261;-54
2022/12/08 08:07:08;;;;;;;;;;;18.90;42.20;;;;;;5051028;27;19913;-56
2022/12/08 08:09:33;;;;;;;;;;;18.90;42.20;;;;;;5061791;27;20027;-55
2022/12/08 08:11:59;;;;;;;;;;;19.00;42.40;;;;;;5080719;27;19918;-55
2022/12/08 08:14:24;;;;;;;;;;;19.00;42.50;;;;;;5051902;28;19913;-55
2022/12/08 08:16:49;;;;;;;;;;;19.20;42.30;;;;;;5077343;27;19915;-55
2022/12/08 08:19:15;;;;;;;;;;;19.50;42.10;;;;;;5060371;28;20321;-55
2022/12/08 08:21:40;;;;;;;;;;;19.80;41.60;;;;;;5060822;28;20300;-54
2022/12/08 08:24:06;;;;;;;;;;;20.00;41.20;;;;;;5060069;28;20326;-55
2022/12/08 08:26:31;;;;;;;;;;;20.30;40.90;;;;;;5057989;28;19963;-55
2022/12/08 08:28:57;;;;;;;;;;;20.50;40.70;;;;;;5058411;27;19912;-56
2022/12/08 08:31:25;;;;;;;;;;;20.60;40.50;;;;;;5059666;28;19968;-55
2022/12/08 08:33:51;;;;;;;;;;;20.70;40.10;;;;;;5035030;28;19920;-55
2022/12/08 08:36:16;;;;;;;;;;;20.80;40.10;;;;;;5051344;28;19909;-55
2022/12/08 08:38:43;;;;;;;;;;;20.90;40.00;;;;;;5058327;27;19925;-56
2022/12/08 08:41:11;;;;;;;;;;;21.00;39.90;;;;;;5055142;28;19909;-55
2022/12/08 08:43:36;;;;;;;;;;;21.10;39.90;;;;;;5066026;28;20244;-55
2022/12/08 08:46:02;;;;;;;;;;;21.20;39.80;;;;;;5054628;28;19984;-55
2022/12/08 08:48:28;;;;;;;;;;;21.20;39.60;;;;;;5049406;27;19916;-55
2022/12/08 08:50:53;;;;;;;;;;;21.30;39.70;;;;;;5055801;27;19921;-55
2022/12/08 08:53:19;;;;;;;;;;;21.30;39.60;;;;;;5057618;28;19924;-55
2022/12/08 08:55:44;;;;;;;;;;;21.40;39.60;;;;;;5067558;28;19919;-55
2022/12/08 08:58:10;;;;;;;;;;;21.40;39.60;;;;;;5053744;27;19917;-55
2022/12/08 09:00:35;;;;;;;;;;;21.40;39.60;;;;;;5058776;28;20036;-54
2022/12/08 09:03:00;;;;;;;;;;;21.40;39.60;;;;;;5062272;28;19917;-57
2022/12/08 09:05:26;;;;;;;;;;;21.40;39.50;;;;;;5090443;27;19958;-55
2022/12/08 09:07:51;;;;;;;;;;;21.50;39.50;;;;;;5055355;27;19917;-55
2022/12/08 09:10:17;;;;;;;;;;;21.50;39.60;;;;;;5057573;27;19973;-55
2022/12/08 09:12:43;;;;;;;;;;;21.50;39.50;;;;;;5055066;28;19921;-56
2022/12/08 09:15:08;;;;;;;;;;;21.50;39.50;;;;;;5084186;27;19996;-55
2022/12/08 09:17:34;;;;;;;;;;;21.50;39.60;;;;;;5054022;28;20015;-54
2022/12/08 09:20:00;;;;;;;;;;;21.50;39.60;;;;;;5066304;27;19914;-56
2022/12/08 09:22:25;;;;;;;;;;;21.60;39.60;;;;;;5076006;27;19917;-53
2022/12/08 09:24:51;;;;;;;;;;;21.60;39.50;;;;;;5053603;28;19924;-54
2022/12/08 09:27:16;;;;;;;;;;;21.30;39.70;;;;;;5052109;28;20003;-54
2022/12/08 09:29:41;;;;;;;;;;;21.10;39.90;;;;;;5053901;28;19917;-56
2022/12/08 09:32:07;;;;;;;;;;;21.10;40.00;;;;;;5076108;27;19913;-56
2022/12/08 09:34:32;;;;;;;;;;;21.10;40.20;;;;;;5050232;28;19920;-55
2022/12/08 09:36:58;;;;;;;;;;;21.00;40.20;;;;;;5065229;28;20409;-54
2022/12/08 09:39:23;;;;;;;;;;;21.00;40.30;;;;;;5052474;28;20280;-54
2022/12/08 09:41:49;;;;;;;;;;;21.10;40.30;;;;;;5051855;28;20339;-54
2022/12/08 09:44:18;;;;;;;;;;;21.10;40.20;;;;;;5046563;28;20452;-55
2022/12/08 09:46:43;;;;;;;;;;;21.20;40.10;;;;;;5057718;28;19924;-54
2022/12/08 09:49:13;;;;;;;;;;;21.20;40.20;;;;;;5036406;28;19917;-54
2022/12/08 09:51:39;;;;;;;;;;;21.10;40.20;;;;;;5076434;27;19920;-55
2022/12/08 09:54:24;;;;;;;;;;;21.10;40.20;;;;;;5055676;28;19917;-54
2022/12/08 09:56:50;;;;;;;;;;;21.20;40.40;;;;;;5058910;28;19962;-54
2022/12/08 09:59:29;;;;;;;;;;;21.20;40.30;;;;;;5049924;27;19917;-55
2022/12/08 10:01:54;;;;;;;;;;;21.30;40.20;;;;;;5058557;28;19921;-53
2022/12/08 10:04:24;;;;;;;;;;;21.30;40.10;;;;;;5048664;27;19917;-54
2022/12/08 10:06:56;;;;;;;;;;;21.30;40.20;;;;;;5063150;27;21669;-55
2022/12/08 10:09:30;;;;;;;;;;;21.30;40.30;;;;;;5029125;28;19920;-56
2022/12/08 10:11:59;;;;;;;;;;;21.30;40.20;;;;;;5053395;28;19940;-56
2022/12/08 10:14:27;;;;;;;;;;;21.30;40.40;;;;;;5039633;28;20277;-56
2022/12/08 10:16:54;;;;;;;;;;;21.30;40.50;;;;;;5055361;28;19916;-54
2022/12/08 10:19:23;;;;;;;;;;;21.20;40.40;;;;;;5036042;28;19921;-55
2022/12/08 10:21:49;;;;;;;;;;;21.30;40.40;;;;;;5060070;28;20306;-54
2022/12/08 10:24:17;;;;;;;;;;;21.30;40.50;;;;;;5058798;28;19917;-54
2022/12/08 10:26:42;;;;;;;;;;;21.20;40.40;;;;;;5118257;27;19917;-54
2022/12/08 10:29:10;;;;;;;;;;;21.30;40.50;;;;;;5056023;28;20283;-54
2022/12/08 10:31:37;;;;;;;;;;;21.30;40.60;;;;;;5040654;28;21292;-54
2022/12/08 10:34:19;;;;;;;;;;;21.30;40.60;;;;;;5065675;28;19916;-54
2022/12/08 10:36:45;;;;;;;;;;;21.30;40.60;;;;;;5072669;27;19912;-54
2022/12/08 10:39:27;;;;;;;;;;;21.30;40.40;;;;;;5090983;27;20378;-54
2022/12/08 10:41:53;;;;;;;;;;;21.30;40.50;;;;;;5105018;27;19946;-55
2022/12/08 10:44:18;;;;;;;;;;;21.30;40.60;;;;;;5059150;27;19992;-54
2022/12/08 10:46:43;;;;;;;;;;;21.30;40.60;;;;;;5045496;28;19923;-54
2022/12/08 10:49:09;;;;;;;;;;;21.30;40.70;;;;;;5056519;27;19921;-55
2022/12/08 10:51:36;;;;;;;;;;;21.30;40.60;;;;;;5055846;27;19917;-55
2022/12/08 10:54:02;;;;;;;;;;;21.30;40.60;;;;;;5050766;28;19917;-55
2022/12/08 10:56:28;;;;;;;;;;;21.30;40.60;;;;;;5055384;28;19920;-55
2022/12/08 10:59:11;;;;;;;;;;;21.40;40.50;;;;;;5048943;28;19924;-55
2022/12/08 11:01:37;;;;;;;;;;;21.40;40.50;;;;;;5059366;28;19909;-55
2022/12/08 11:04:03;;;;;;;;;;;21.40;40.60;;;;;;5037667;28;20296;-53
2022/12/08 11:06:33;;;;;;;;;;;21.40;40.70;;;;;;5051913;28;19912;-54
2022/12/08 11:08:59;;;;;;;;;;;21.40;40.70;;;;;;5060301;27;19920;-55
2022/12/08 11:11:36;;;;;;;;;;;21.50;40.60;;;;;;5053198;28;19917;-56
2022/12/08 11:14:05;;;;;;;;;;;21.50;40.60;;;;;;5050760;28;19913;-55
2022/12/08 11:16:30;;;;;;;;;;;21.50;40.70;;;;;;5060808;28;19920;-54
2022/12/08 11:18:56;;;;;;;;;;;21.50;40.80;;;;;;5069680;27;20341;-54
2022/12/08 11:21:33;;;;;;;;;;;21.40;40.80;;;;;;5057491;27;20336;-53
2022/12/08 11:23:58;;;;;;;;;;;21.40;40.90;;;;;;5034526;27;20007;-54
2022/12/08 11:26:31;;;;;;;;;;;21.40;41.00;;;;;;5044811;28;20016;-53
2022/12/08 11:28:56;;;;;;;;;;;21.40;40.90;;;;;;5043238;28;19960;-54
2022/12/08 11:31:29;;;;;;;;;;;21.50;40.90;;;;;;5052146;27;19915;-55
2022/12/08 11:33:55;;;;;;;;;;;21.50;40.80;;;;;;5049463;27;20356;-55
2022/12/08 11:36:21;;;;;;;;;;;21.50;40.90;;;;;;5064748;27;19975;-54
2022/12/08 11:38:47;;;;;;;;;;;21.50;40.80;;;;;;5049943;28;19956;-56
2022/12/08 11:41:13;;;;;;;;;;;21.50;41.00;;;;;;5052432;28;19924;-54
2022/12/08 11:43:47;;;;;;;;;;;21.50;41.00;;;;;;5053293;28;19917;-54
2022/12/08 11:46:20;;;;;;;;;;;21.50;41.10;;;;;;5039023;28;19921;-54
2022/12/08 11:48:52;;;;;;;;;;;21.50;41.00;;;;;;5030476;28;19972;-55
2022/12/08 11:51:18;;;;;;;;;;;21.60;41.00;;;;;;5030633;28;19916;-54
2022/12/08 11:54:02;;;;;;;;;;;21.50;41.00;;;;;;5062495;27;19980;-54
2022/12/08 11:56:35;;;;;;;;;;;21.60;41.00;;;;;;5061129;27;20332;-54
2022/12/08 11:59:20;;;;;;;;;;;21.60;40.90;;;;;;5060826;28;19916;-56
2022/12/08 12:01:46;;;;;;;;;;;21.60;40.90;;;;;;5038165;27;20016;-55
2022/12/08 12:04:11;;;;;;;;;;;21.60;40.80;;;;;;5072297;27;20003;-53
2022/12/08 12:06:55;;;;;;;;;;;21.60;40.90;;;;;;5079123;27;19913;-54
2022/12/08 12:09:28;;;;;;;;;;;21.60;40.80;;;;;;5078896;27;19913;-54
2022/12/08 12:12:14;;;;;;;;;;;21.60;41.10;;;;;;5029793;28;19920;-55
2022/12/08 12:14:58;;;;;;;;;;;21.60;41.00;;;;;;5064108;28;19920;-53
2022/12/08 12:17:36;;;;;;;;;;;21.60;41.20;;;;;;5058162;27;20355;-54
2022/12/08 12:20:02;;;;;;;;;;;21.60;41.20;;;;;;5054839;28;19920;-54
2022/12/08 12:22:28;;;;;;;;;;;21.70;41.00;;;;;;5061754;28;19913;-55
2022/12/08 12:24:54;;;;;;;;;;;21.70;41.00;;;;;;5049064;28;19972;-54
2022/12/08 12:27:26;;;;;;;;;;;21.70;40.90;;;;;;5053144;28;20384;-53
2022/12/08 12:30:02;;;;;;;;;;;21.70;40.90;;;;;;5041351;28;19909;-54
2022/12/08 12:32:38;;;;;;;;;;;21.70;41.00;;;;;;5114333;27;19911;-54
2022/12/08 12:35:04;;;;;;;;;;;21.60;40.90;;;;;;5055549;28;19940;-53
2022/12/08 12:37:36;;;;;;;;;;;21.70;41.00;;;;;;5062292;28;19921;-53
2022/12/08 12:40:06;;;;;;;;;;;21.70;40.90;;;;;;5059433;28;19969;-55
2022/12/08 12:42:38;;;;;;;;;;;21.70;41.00;;;;;;5049284;28;19967;-54
2022/12/08 12:45:24;;;;;;;;;;;21.70;41.00;;;;;;5053077;28;19985;-55
2022/12/08 12:47:50;;;;;;;;;;;21.70;41.00;;;;;;5097428;27;19916;-53
2022/12/08 12:50:30;;;;;;;;;;;21.70;41.10;;;;;;5051615;28;19913;-54
2022/12/08 12:52:56;;;;;;;;;;;21.70;41.00;;;;;;5069554;28;19999;-55
2022/12/08 12:55:21;;;;;;;;;;;21.70;41.10;;;;;;5093620;27;20006;-53
2022/12/08 12:57:51;;;;;;;;;;;21.70;41.10;;;;;;5051885;27;19921;-54
2022/12/08 13:00:17;;;;;;;;;;;21.70;41.10;;;;;;5059646;27;19913;-54
2022/12/08 13:02:42;;;;;;;;;;;21.80;41.10;;;;;;5090470;27;19942;-54
2022/12/08 13:05:25;;;;;;;;;;;21.80;41.00;;;;;;5107448;27;19955;-55
2022/12/08 13:07:54;;;;;;;;;;;21.80;41.10;;;;;;5039780;27;19964;-55
2022/12/08 13:10:32;;;;;;;;;;;21.80;41.20;;;;;;5068645;28;19912;-54
2022/12/08 13:13:11;;;;;;;;;;;21.70;41.20;;;;;;5039424;28;19919;-53
2022/12/08 13:15:37;;;;;;;;;;;21.80;41.20;;;;;;5067369;28;19999;-54
2022/12/08 13:18:03;;;;;;;;;;;21.80;41.20;;;;;;5064297;28;20259;-54
2022/12/08 13:20:29;;;;;;;;;;;21.80;41.10;;;;;;5066383;27;20003;-55
2022/12/08 13:23:02;;;;;;;;;;;21.80;41.10;;;;;;5058126;28;20432;-54
2022/12/08 13:25:39;;;;;;;;;;;21.80;41.10;;;;;;5054548;27;20380;-57
2022/12/08 13:28:21;;;;;;;;;;;21.80;41.10;;;;;;5070200;27;19921;-54
2022/12/08 13:30:51;;;;;;;;;;;21.80;41.20;;;;;;5047378;28;19913;-54
2022/12/08 13:33:18;;;;;;;;;;;21.80;41.20;;;;;;5046322;28;19921;-54
2022/12/08 13:35:44;;;;;;;;;;;21.80;41.80;;;;;;5055656;27;20365;-56
2022/12/08 13:38:12;;;;;;;;;;;21.90;40.90;;;;;;5082084;27;20390;-54
2022/12/08 13:40:37;;;;;;;;;;;21.90;41.00;;;;;;5046383;27;20008;-54
2022/12/08 13:43:12;;;;;;;;;;;21.80;41.00;;;;;;5059637;28;20057;-54
2022/12/08 13:45:38;;;;;;;;;;;21.80;41.20;;;;;;5065564;27;20356;-54
2022/12/08 13:48:10;;;;;;;;;;;21.80;41.00;;;;;;5047328;28;19917;-54
2022/12/08 13:50:42;;;;;;;;;;;21.80;41.20;;;;;;5050947;28;19913;-54
2022/12/08 13:53:19;;;;;;;;;;;21.80;41.20;;;;;;5039901;28;20333;-53
2022/12/08 13:55:45;;;;;;;;;;;21.80;41.10;;;;;;5046799;28;19917;-53
2022/12/08 13:58:17;;;;;;;;;;;21.90;41.20;;;;;;5091607;27;19944;-52
2022/12/08 14:00:51;;;;;;;;;;;21.90;41.10;;;;;;5061671;27;19917;-54
2022/12/08 14:03:17;;;;;;;;;;;21.90;41.20;;;;;;5032691;28;19913;-55
2022/12/08 14:05:43;;;;;;;;;;;21.90;41.10;;;;;;5129528;27;20378;-54
2022/12/08 14:08:23;;;;;;;;;;;21.90;41.10;;;;;;5102507;27;20283;-54
2022/12/08 14:10:56;;;;;;;;;;;21.90;41.20;;;;;;5072498;27;19973;-53
2022/12/08 14:13:22;;;;;;;;;;;21.90;41.10;;;;;;5042963;28;19955;-54
2022/12/08 14:15:48;;;;;;;;;;;21.90;41.00;;;;;;5056040;28;19920;-54
2022/12/08 14:18:25;;;;;;;;;;;21.90;41.10;;;;;;5074510;27;19921;-53
2022/12/08 14:20:59;;;;;;;;;;;21.90;41.10;;;;;;5108107;27;19987;-54
2022/12/08 14:23:25;;;;;;;;;;;21.90;41.10;;;;;;5066308;28;19923;-55
2022/12/08 14:25:50;;;;;;;;;;;21.90;41.20;;;;;;5057866;28;19908;-54